< < Back
Terminal Aerodrome Forecast


Current Version              Previous Versions:   1  2  3  4  5  6  7  8  9  

Terminal Aerodrome Forecast

661
FTUS42 KGSP 301100
TAFGSP
TAF
KGSP 301123Z 3012/3112 02003KT 1/4SM FG VV001
      TEMPO 3012/3013 4SM BR SCT002
     FM301300 15006KT P6SM SCT020
     FM301400 17006KT P6SM SCT050
     FM310600 00000KT P6SM BKN050=



Latest METAR

017
SAUS70 KWBC 310000 RRV
MTRGSP
METAR KGSP 302353Z 00000KT 10SM FEW095 27/21 A3011 RMK AO2 SLP184
T02720211 10317 20272 53001


USA.gov is the U.S. government's official web portal to all federal, state and local government web resources and services.